Aeroporto :
LOGIN :

Iscrizione | Disclaimer

   EN    FR    IT 

 










Sommario :    VFR   VFR Marginale   IFR   IFR Intensivo   IFR Molto Intensivo
Visibilità : 
Base nubi : 
>= 8 km
>= 3000ft
5 / 8 km
1000 / 3000 ft
1500m / 5 km
500 / 1000 ft
800 / 1500m
200 / 500 ft
< 800m
< 200 ft
Simboli :   Temporali  Nebbia  Neve Forte  Precipitazioni Forti  Vento > 20 kt
SIGMETs :   Varie  Temporali  Ghiacco  Turbolenza  Onda orograficha  Ceneri Vulcaniche






- Altitudine del aeroporto : 1906 ft
- Codice IATA : INN


LOWI - Innsbruck

ULTIMO METAR :
  • 172250Z AUTO VRB02KT 9999 NSC 09/07 Q1017

METARs OBSOLETI :
  • 172220Z AUTO 26004KT 160V290 9999 FEW150 09/07 Q1017
  • 172150Z AUTO 25004KT 210V280 9999 FEW160 10/07 Q1017
  • 172120Z AUTO 27009KT 9999 NSC 10/07 Q1017
  • 172050Z 26004KT 210V290 CAVOK 10/07 Q1017 NOSIG
  • 172020Z 23005KT 160V290 CAVOK 11/07 Q1017 NOSIG
  • 171950Z 27005KT 240V300 CAVOK 11/07 Q1016 NOSIG

TAF TAF LOWI
Valido dal 17 a 18 ore il 18 a 18 ore UTC


171715Z 1718/1818 27010KT CAVOK TX20/1814Z TN07/1805Z
BECMG 1808/1810 10010KT
TEMPO 1810/1818 12015G25KT



MetMap, La meteo Aeronautica in un colpo d'occhio ! - Copyright ORBIFLY Dicembre 2007 - Disclaimer

ORBIFLY MET'MAP TEAM :

Programmazione e sviluppo : Alexandra Zaïnal
Concezione e sviluppo : Baudouin d'Aumeries
Co-Programmazione e sviluppo : Marc-Olivier Méhu
Supporto tecnico e logistico : Manuel Goepfert
Aiuto per la traduzione : Arnaldo La Scala

Contatto : metmap@orbifly.com




FONTI E CREDITI :

   NOAA